Singapore Star — 3EJX5 — position and weather

sailwx.info

Track history (hours):
 
Tides and Currents Weather Stations Pressure Air Temp Water Temp Dewpoint Dewpoint Depression Visibility Wind Speed Wind Dir Waves Ship Positions

Singapore Star

Last reported at 2018-Jun-27 05:53 UTC. Time now 2018-Jul-23 14:55 UTC.
Position N 01°23' E 103°14'.
Warning: this ship's position is 26 days out of date.

Length 183 m; draft 10.4 m.

Type: Ship. MMSI: 372639000.

Date/timePositionNaut miles runAvg speedWind from/ knotsBaromVisibWave heightAir tempDewpointWater temp
2018-Jun-27 05:53N 01°23' E 103°14'512.8
2018-Jun-27 05:30N 01°20' E 103°18'612.2
2018-Jun-27 04:59N 01°16' E 103°23'611.6
2018-Jun-27 04:30N 01°14' E 103°28'611.5
2018-Jun-27 04:00N 01°12' E 103°34'611.9
2018-Jun-27 03:30N 01°11' E 103°39'611.2
2018-Jun-27 03:00N 01°09' E 103°44'511.0
2018-Jun-27 02:30N 01°12' E 103°49'4 7.3
2018-Jun-27 02:00N 01°14' E 103°47'4 7.7
2018-Jun-27 01:30N 01°17' E 103°44'0 0.0
2018-Jun-25 11:19N 01°17' E 103°44'0 0.2
2018-Jun-25 11:01N 01°17' E 103°44'0 0.8
2018-Jun-25 10:30N 01°18' E 103°44'1 2.2
2018-Jun-25 10:00N 01°17' E 103°45'4 8.6
2018-Jun-25 09:29N 01°13' E 103°48'1 1.1
2018-Jun-25 08:59N 01°14' E 103°48'0 0.1
2018-Jun-25 08:29N 01°14' E 103°48'0 0.0
2018-Jun-25 07:53N 01°14' E 103°48'0 0.0
2018-Jun-25 07:29N 01°14' E 103°48'0 0.0
2018-Jun-25 06:52N 01°14' E 103°48'0 0.2
2018-Jun-25 06:29N 01°14' E 103°48'0 0.0
2018-Jun-25 05:59N 01°14' E 103°48'0 0.0
2018-Jun-25 05:29N 01°14' E 103°48'0 0.0
2018-Jun-25 04:59N 01°14' E 103°48'0 0.0
2018-Jun-25 04:29N 01°14' E 103°48'0 0.1
2018-Jun-25 03:55N 01°14' E 103°49'0 0.1
2018-Jun-25 03:26N 01°14' E 103°48'0 0.0
2018-Jun-25 02:59N 01°14' E 103°48'0 0.0
2018-Jun-25 02:29N 01°14' E 103°48'0 0.0
2018-Jun-25 01:56N 01°14' E 103°48'0 0.0
2018-Jun-25 01:29N 01°14' E 103°48'0 0.1
2018-Jun-25 00:58N 01°14' E 103°49'0 0.1
2018-Jun-25 00:29N 01°14' E 103°49'0 0.1
2018-Jun-24 23:55N 01°13' E 103°49'0 0.1
2018-Jun-24 23:29N 01°13' E 103°48'0 0.1
2018-Jun-24 22:59N 01°13' E 103°49'0 0.0
2018-Jun-24 22:25N 01°14' E 103°49'0 0.0
2018-Jun-24 21:58N 01°13' E 103°49'0 0.0
2018-Jun-24 21:28N 01°13' E 103°49'0 0.0
2018-Jun-24 20:59N 01°13' E 103°49'0 0.0
2018-Jun-24 20:29N 01°13' E 103°49'0 0.0
2018-Jun-24 19:55N 01°13' E 103°49'0 0.1
2018-Jun-24 19:28N 01°14' E 103°49'0 0.0
2018-Jun-24 18:58N 01°14' E 103°49'0 0.0
2018-Jun-24 18:28N 01°14' E 103°49'0 0.0
2018-Jun-24 17:59N 01°14' E 103°49'0 0.0
2018-Jun-24 17:29N 01°14' E 103°49'0 0.0
2018-Jun-24 16:59N 01°14' E 103°49'0 0.1
2018-Jun-24 16:29N 01°14' E 103°48'0 0.1
2018-Jun-24 15:58N 01°14' E 103°48'0 0.1
2018-Jun-24 15:25N 01°14' E 103°48'0 0.0
2018-Jun-24 14:59N 01°14' E 103°48'0 0.0
2018-Jun-24 14:29N 01°14' E 103°48'0 0.1
2018-Jun-24 13:59N 01°14' E 103°48'0 0.0
2018-Jun-24 13:28N 01°14' E 103°48'0 0.1
2018-Jun-24 12:59N 01°14' E 103°48'0 0.0
2018-Jun-24 12:28N 01°14' E 103°48'0 0.1
2018-Jun-24 11:58N 01°14' E 103°48'0 0.1
2018-Jun-24 11:26N 01°14' E 103°48'0 0.0
2018-Jun-24 10:56N 01°14' E 103°48'0 0.0
2018-Jun-24 10:29N 01°14' E 103°48'0 0.1
2018-Jun-24 09:58N 01°14' E 103°48'0 0.1
2018-Jun-24 09:29N 01°14' E 103°48'0 0.0
2018-Jun-24 08:59N 01°14' E 103°48'0 0.0
2018-Jun-24 08:29N 01°14' E 103°48'0 0.0
2018-Jun-24 07:59N 01°14' E 103°48'0 0.0
2018-Jun-24 07:29N 01°14' E 103°48'0 0.1
2018-Jun-24 06:56N 01°14' E 103°48'0 0.1
2018-Jun-24 06:22N 01°14' E 103°48'0 0.0
2018-Jun-24 05:59N 01°14' E 103°48'0 0.0
2018-Jun-24 05:28N 01°14' E 103°48'0 0.2
2018-Jun-24 04:58N 01°14' E 103°49'1 1.5
2018-Jun-24 04:30N 01°13' E 103°49'4 7.8
2018-Jun-24 04:01N 01°13' E 103°53'4 7.2
2018-Jun-24 03:31N 01°15' E 103°56'2 3.6
2018-Jun-24 03:00N 01°16' E 103°58'2 3.0
2018-Jun-24 02:31N 01°16' E 103°59'3 5.5
2018-Jun-24 02:00N 01°16' E 104°02'3 6.6
2018-Jun-24 01:30N 01°16' E 104°05'4 6.8
2018-Jun-24 00:55N 01°17' E 104°09'3 7.2
2018-Jun-24 00:28N 01°17' E 104°12'3 6.9
2018-Jun-23 23:58N 01°18' E 104°16'3 6.9
2018-Jun-23 23:28N 01°19' E 104°19'4 8.8
2018-Jun-23 23:01N 01°21' E 104°22'611.9
2018-Jun-23 22:29N 01°26' E 104°27'6 9.3
2018-Jun-23 21:52N 01°29' E 104°31'611.7
2018-Jun-23 21:22N 01°34' E 104°34'3111.4
2018-Jun-23 18:36N 02°03' E 104°47'  
Track history (hours):
 
Tides and Currents Weather Stations Pressure Air Temp Water Temp Dewpoint Dewpoint Depression Visibility Wind Speed Wind Dir Waves Ship Positions

Singapore Star

Last reported at 2018-Jun-27 05:53 UTC. Time now 2018-Jul-23 14:55 UTC.
Position N 01°23' E 103°14'.
Warning: this ship's position is 26 days out of date.

Length 183 m; draft 10.4 m.

Type: Ship. MMSI: 372639000.

Date/timePositionNaut miles runAvg speedWind from/ knotsBaromVisibWave heightAir tempDewpointWater temp
2018-Jun-27 05:53N 01°23' E 103°14'512.8
2018-Jun-27 05:30N 01°20' E 103°18'612.2
2018-Jun-27 04:59N 01°16' E 103°23'611.6
2018-Jun-27 04:30N 01°14' E 103°28'611.5
2018-Jun-27 04:00N 01°12' E 103°34'611.9
2018-Jun-27 03:30N 01°11' E 103°39'611.2
2018-Jun-27 03:00N 01°09' E 103°44'511.0
2018-Jun-27 02:30N 01°12' E 103°49'4 7.3
2018-Jun-27 02:00N 01°14' E 103°47'4 7.7
2018-Jun-27 01:30N 01°17' E 103°44'0 0.0
2018-Jun-25 11:19N 01°17' E 103°44'0 0.2
2018-Jun-25 11:01N 01°17' E 103°44'0 0.8
2018-Jun-25 10:30N 01°18' E 103°44'1 2.2
2018-Jun-25 10:00N 01°17' E 103°45'4 8.6
2018-Jun-25 09:29N 01°13' E 103°48'1 1.1
2018-Jun-25 08:59N 01°14' E 103°48'0 0.1
2018-Jun-25 08:29N 01°14' E 103°48'0 0.0
2018-Jun-25 07:53N 01°14' E 103°48'0 0.0
2018-Jun-25 07:29N 01°14' E 103°48'0 0.0
2018-Jun-25 06:52N 01°14' E 103°48'0 0.2
2018-Jun-25 06:29N 01°14' E 103°48'0 0.0
2018-Jun-25 05:59N 01°14' E 103°48'0 0.0
2018-Jun-25 05:29N 01°14' E 103°48'0 0.0
2018-Jun-25 04:59N 01°14' E 103°48'0 0.0
2018-Jun-25 04:29N 01°14' E 103°48'0 0.1
2018-Jun-25 03:55N 01°14' E 103°49'0 0.1
2018-Jun-25 03:26N 01°14' E 103°48'0 0.0
2018-Jun-25 02:59N 01°14' E 103°48'0 0.0
2018-Jun-25 02:29N 01°14' E 103°48'0 0.0
2018-Jun-25 01:56N 01°14' E 103°48'0 0.0
2018-Jun-25 01:29N 01°14' E 103°48'0 0.1
2018-Jun-25 00:58N 01°14' E 103°49'0 0.1
2018-Jun-25 00:29N 01°14' E 103°49'0 0.1
2018-Jun-24 23:55N 01°13' E 103°49'0 0.1
2018-Jun-24 23:29N 01°13' E 103°48'0 0.1
2018-Jun-24 22:59N 01°13' E 103°49'0 0.0
2018-Jun-24 22:25N 01°14' E 103°49'0 0.0
2018-Jun-24 21:58N 01°13' E 103°49'0 0.0
2018-Jun-24 21:28N 01°13' E 103°49'0 0.0
2018-Jun-24 20:59N 01°13' E 103°49'0 0.0
2018-Jun-24 20:29N 01°13' E 103°49'0 0.0
2018-Jun-24 19:55N 01°13' E 103°49'0 0.1
2018-Jun-24 19:28N 01°14' E 103°49'0 0.0
2018-Jun-24 18:58N 01°14' E 103°49'0 0.0
2018-Jun-24 18:28N 01°14' E 103°49'0 0.0
2018-Jun-24 17:59N 01°14' E 103°49'0 0.0
2018-Jun-24 17:29N 01°14' E 103°49'0 0.0
2018-Jun-24 16:59N 01°14' E 103°49'0 0.1
2018-Jun-24 16:29N 01°14' E 103°48'0 0.1
2018-Jun-24 15:58N 01°14' E 103°48'0 0.1
2018-Jun-24 15:25N 01°14' E 103°48'0 0.0
2018-Jun-24 14:59N 01°14' E 103°48'0 0.0
2018-Jun-24 14:29N 01°14' E 103°48'0 0.1
2018-Jun-24 13:59N 01°14' E 103°48'0 0.0
2018-Jun-24 13:28N 01°14' E 103°48'0 0.1
2018-Jun-24 12:59N 01°14' E 103°48'0 0.0
2018-Jun-24 12:28N 01°14' E 103°48'0 0.1
2018-Jun-24 11:58N 01°14' E 103°48'0 0.1
2018-Jun-24 11:26N 01°14' E 103°48'0 0.0
2018-Jun-24 10:56N 01°14' E 103°48'0 0.0
2018-Jun-24 10:29N 01°14' E 103°48'0 0.1
2018-Jun-24 09:58N 01°14' E 103°48'0 0.1
2018-Jun-24 09:29N 01°14' E 103°48'0 0.0
2018-Jun-24 08:59N 01°14' E 103°48'0 0.0
2018-Jun-24 08:29N 01°14' E 103°48'0 0.0
2018-Jun-24 07:59N 01°14' E 103°48'0 0.0
2018-Jun-24 07:29N 01°14' E 103°48'0 0.1
2018-Jun-24 06:56N 01°14' E 103°48'0 0.1
2018-Jun-24 06:22N 01°14' E 103°48'0 0.0
2018-Jun-24 05:59N 01°14' E 103°48'0 0.0
2018-Jun-24 05:28N 01°14' E 103°48'0 0.2
2018-Jun-24 04:58N 01°14' E 103°49'1 1.5
2018-Jun-24 04:30N 01°13' E 103°49'4 7.8
2018-Jun-24 04:01N 01°13' E 103°53'4 7.2
2018-Jun-24 03:31N 01°15' E 103°56'2 3.6
2018-Jun-24 03:00N 01°16' E 103°58'2 3.0
2018-Jun-24 02:31N 01°16' E 103°59'3 5.5
2018-Jun-24 02:00N 01°16' E 104°02'3 6.6
2018-Jun-24 01:30N 01°16' E 104°05'4 6.8
2018-Jun-24 00:55N 01°17' E 104°09'3 7.2
2018-Jun-24 00:28N 01°17' E 104°12'3 6.9
2018-Jun-23 23:58N 01°18' E 104°16'3 6.9
2018-Jun-23 23:28N 01°19' E 104°19'4 8.8
2018-Jun-23 23:01N 01°21' E 104°22'611.9
2018-Jun-23 22:29N 01°26' E 104°27'6 9.3
2018-Jun-23 21:52N 01°29' E 104°31'611.7
2018-Jun-23 21:22N 01°34' E 104°34'3111.4
2018-Jun-23 18:36N 02°03' E 104°47'  

Dump ship's entire track history